createdAt,value
2024-05-09T00:00:41.171Z,65.70
2024-05-09T00:03:27.397Z,66.70
2024-05-09T00:06:13.484Z,66.20
2024-05-09T00:08:59.203Z,66.00
2024-05-09T00:11:44.630Z,66.10
2024-05-09T00:14:30.593Z,64.90
2024-05-09T00:17:16.557Z,66.10
2024-05-09T00:20:02.323Z,66.80
2024-05-09T00:22:48.208Z,66.70
2024-05-09T00:25:33.932Z,68.20
2024-05-09T00:28:19.730Z,67.60
2024-05-09T00:31:05.064Z,67.70
2024-05-09T00:33:50.525Z,67.20
2024-05-09T00:36:36.372Z,69.40
2024-05-09T00:39:21.624Z,68.60
2024-05-09T00:42:07.083Z,68.20
2024-05-09T00:44:52.373Z,68.00
2024-05-09T00:47:37.972Z,69.40
2024-05-09T00:50:29.939Z,69.90
2024-05-09T00:53:21.763Z,69.40
2024-05-09T00:56:08.077Z,70.10
2024-05-09T00:58:54.615Z,69.70
2024-05-09T01:01:41.279Z,71.10
2024-05-09T01:04:27.284Z,70.40
2024-05-09T01:07:12.825Z,72.40
2024-05-09T01:09:58.195Z,72.40
2024-05-09T01:12:44.515Z,72.60
2024-05-09T01:15:30.574Z,73.20
2024-05-09T01:18:16.318Z,72.50
2024-05-09T01:21:02.106Z,71.90
2024-05-09T01:23:48.109Z,71.90
2024-05-09T01:26:33.968Z,72.30
2024-05-09T01:29:20.308Z,72.00
2024-05-09T01:32:06.460Z,71.60
2024-05-09T01:34:52.067Z,71.20
2024-05-09T01:37:37.880Z,71.60
2024-05-09T01:40:33.335Z,71.30
2024-05-09T01:43:23.537Z,71.60
2024-05-09T01:46:19.534Z,72.80
2024-05-09T01:49:05.242Z,72.10
2024-05-09T01:51:51.036Z,73.10
2024-05-09T01:54:37.398Z,73.30
2024-05-09T01:57:22.911Z,72.90
2024-05-09T02:00:10.294Z,73.50
2024-05-09T02:02:56.133Z,72.80
2024-05-09T02:05:42.373Z,72.40
2024-05-09T02:08:28.484Z,72.30
2024-05-09T02:11:14.449Z,72.50
2024-05-09T02:14:00.415Z,72.40
2024-05-09T02:16:46.598Z,73.10
2024-05-09T02:19:32.768Z,72.40
2024-05-09T02:22:18.333Z,73.30
2024-05-09T02:25:03.769Z,72.00
2024-05-09T02:27:49.553Z,72.60
2024-05-09T02:30:39.897Z,73.50
2024-05-09T02:33:27.787Z,72.50
2024-05-09T02:36:13.887Z,72.40
2024-05-09T02:38:59.295Z,72.10
2024-05-09T02:41:44.722Z,72.60
2024-05-09T02:44:30.205Z,72.90
2024-05-09T02:47:16.002Z,73.20
2024-05-09T02:50:01.851Z,73.90
2024-05-09T02:52:47.757Z,75.30
2024-05-09T02:55:33.994Z,74.30
2024-05-09T02:58:19.899Z,74.90
2024-05-09T03:01:05.752Z,74.50
2024-05-09T03:03:52.372Z,75.30
2024-05-09T03:06:44.103Z,74.60
2024-05-09T03:09:29.502Z,74.50
2024-05-09T03:12:14.959Z,74.50
2024-05-09T03:15:00.621Z,75.20
2024-05-09T03:17:46.594Z,74.90
2024-05-09T03:20:35.036Z,74.60
2024-05-09T03:23:21.894Z,75.80
2024-05-09T03:26:12.131Z,75.40
2024-05-09T03:28:58.033Z,74.90
2024-05-09T03:31:43.711Z,74.70
2024-05-09T03:34:29.617Z,75.00
2024-05-09T03:37:15.427Z,75.10
2024-05-09T03:40:02.701Z,75.70
2024-05-09T03:42:48.678Z,75.10
2024-05-09T03:45:33.898Z,76.70
2024-05-09T03:48:19.623Z,77.50
2024-05-09T03:51:05.310Z,76.40
2024-05-09T03:53:50.872Z,76.60
2024-05-09T03:56:36.275Z,76.10
2024-05-09T03:59:22.094Z,77.10
2024-05-09T04:02:07.964Z,76.60
2024-05-09T04:04:53.808Z,77.00
2024-05-09T04:07:42.571Z,76.90
2024-05-09T04:10:33.175Z,78.60
2024-05-09T04:13:20.415Z,79.00
2024-05-09T04:16:06.946Z,78.60
2024-05-09T04:18:52.634Z,78.50
2024-05-09T04:21:38.438Z,80.50
2024-05-09T04:24:23.814Z,80.20
2024-05-09T04:27:09.304Z,81.30
2024-05-09T04:29:55.102Z,81.00
2024-05-09T04:32:44.161Z,81.20
2024-05-09T04:35:29.987Z,81.30
2024-05-09T04:38:16.178Z,81.10
2024-05-09T04:41:01.957Z,80.80
2024-05-09T04:43:51.040Z,80.40
2024-05-09T04:46:36.735Z,80.70
2024-05-09T04:49:22.218Z,79.90
2024-05-09T04:52:08.022Z,79.70
2024-05-09T04:54:55.424Z,80.10
2024-05-09T04:57:42.509Z,80.10
2024-05-09T05:00:35.834Z,80.10
2024-05-09T05:03:23.764Z,79.40
2024-05-09T05:06:09.772Z,78.60
2024-05-09T05:08:55.545Z,79.30
2024-05-09T05:11:41.057Z,79.10
2024-05-09T05:14:27.108Z,79.00
2024-05-09T05:17:12.919Z,79.50
2024-05-09T05:19:58.926Z,79.00
2024-05-09T05:22:44.513Z,79.30
2024-05-09T05:25:30.417Z,78.30
2024-05-09T05:28:16.519Z,77.30
2024-05-09T05:31:02.173Z,77.30
2024-05-09T05:33:48.584Z,75.70
2024-05-09T05:36:34.224Z,76.60
2024-05-09T05:39:20.106Z,76.80
2024-05-09T05:42:05.759Z,76.30
2024-05-09T05:44:51.331Z,75.70
2024-05-09T05:47:38.656Z,75.60
2024-05-09T05:50:32.248Z,75.30
2024-05-09T05:53:21.688Z,75.50
2024-05-09T05:56:07.749Z,74.40
2024-05-09T05:58:53.106Z,73.80
2024-05-09T06:01:39.077Z,74.30
2024-05-09T06:04:24.919Z,74.70
2024-05-09T06:07:10.802Z,73.60
2024-05-09T06:09:56.356Z,73.40
2024-05-09T06:12:41.539Z,72.60
2024-05-09T06:15:27.474Z,72.90
2024-05-09T06:18:14.275Z,71.60
2024-05-09T06:20:59.855Z,71.20
2024-05-09T06:23:46.570Z,70.80
2024-05-09T06:26:32.453Z,71.10
2024-05-09T06:29:17.978Z,70.20
2024-05-09T06:32:03.585Z,69.80
2024-05-09T06:34:49.464Z,69.50
2024-05-09T06:37:35.352Z,70.00
2024-05-09T06:40:25.733Z,68.30
2024-05-09T06:43:20.230Z,68.30
2024-05-09T06:46:05.762Z,67.80
2024-05-09T06:48:52.853Z,67.60
2024-05-09T06:51:39.249Z,67.50
2024-05-09T06:54:24.749Z,67.60
2024-05-09T06:57:10.173Z,67.00
2024-05-09T06:59:59.745Z,68.10
2024-05-09T07:02:45.421Z,66.80
2024-05-09T07:05:31.304Z,66.30
2024-05-09T07:08:17.639Z,65.20
2024-05-09T07:11:04.560Z,65.40
2024-05-09T07:13:50.408Z,65.80
2024-05-09T07:16:36.067Z,65.80
2024-05-09T07:19:21.752Z,64.60
2024-05-09T07:22:07.379Z,64.30
2024-05-09T07:24:53.080Z,64.40
2024-05-09T07:27:38.629Z,63.90
2024-05-09T07:30:32.627Z,64.20
2024-05-09T07:33:22.422Z,64.40
2024-05-09T07:36:09.558Z,64.40
2024-05-09T07:38:55.271Z,63.60
2024-05-09T07:41:40.808Z,62.60
2024-05-09T07:44:26.887Z,61.90
2024-05-09T07:48:27.700Z,62.40
2024-05-09T07:53:36.559Z,61.70
2024-05-09T07:56:12.744Z,60.40
2024-05-09T07:58:58.700Z,58.20
2024-05-09T08:01:44.221Z,57.40
2024-05-09T08:04:30.130Z,58.80
2024-05-09T08:07:15.962Z,56.70
2024-05-09T08:10:01.868Z,55.80
2024-05-09T08:12:47.635Z,55.60
2024-05-09T08:15:33.571Z,52.20
2024-05-09T08:18:19.374Z,52.90
2024-05-09T08:21:05.272Z,54.40
2024-05-09T08:23:50.713Z,52.70
2024-05-09T08:26:36.592Z,52.90
2024-05-09T08:29:22.372Z,53.00
2024-05-09T08:32:12.687Z,53.80
2024-05-09T08:34:58.420Z,51.50
2024-05-09T08:37:44.259Z,50.20
2024-05-09T08:40:35.677Z,50.10
2024-05-09T08:43:23.741Z,50.50
2024-05-09T08:46:10.996Z,49.40
2024-05-09T08:48:57.409Z,48.20
2024-05-09T08:51:49.004Z,48.60
2024-05-09T08:54:35.688Z,48.40
2024-05-09T08:57:22.816Z,46.90
2024-05-09T09:00:12.703Z,47.70
2024-05-09T09:03:01.719Z,48.00
2024-05-09T09:06:02.134Z,46.20
2024-05-09T09:08:47.723Z,46.50
2024-05-09T09:11:33.661Z,46.10
2024-05-09T09:14:19.557Z,42.80
2024-05-09T09:17:15.661Z,44.00
2024-05-09T09:20:01.329Z,44.30
2024-05-09T09:22:46.861Z,43.50
2024-05-09T09:25:32.489Z,44.10
2024-05-09T09:28:18.457Z,43.60
2024-05-09T09:31:04.506Z,44.00
2024-05-09T09:33:50.389Z,43.10
2024-05-09T09:36:36.285Z,43.20
2024-05-09T09:39:24.787Z,42.80
2024-05-09T09:42:11.675Z,42.20
2024-05-09T09:45:04.334Z,40.60
2024-05-09T09:47:55.549Z,40.70
2024-05-09T09:50:42.069Z,40.20
2024-05-09T09:53:31.857Z,41.30
2024-05-09T09:56:18.598Z,39.70
2024-05-09T09:59:04.642Z,39.90
2024-05-09T10:01:50.558Z,40.10
2024-05-09T10:04:36.667Z,39.90
2024-05-09T10:07:23.139Z,39.60
2024-05-09T10:10:13.774Z,40.60
2024-05-09T10:13:05.964Z,40.00
2024-05-09T10:15:53.062Z,37.60
2024-05-09T10:18:40.163Z,38.10
2024-05-09T10:21:27.209Z,37.60
2024-05-09T10:24:13.027Z,38.00
2024-05-09T10:26:58.311Z,38.20
2024-05-09T10:29:53.346Z,39.10
2024-05-09T10:32:39.864Z,37.50
2024-05-09T10:35:26.882Z,38.30
2024-05-09T10:38:12.548Z,38.70
2024-05-09T10:41:00.011Z,38.30
2024-05-09T10:43:45.525Z,35.20
2024-05-09T10:46:31.022Z,36.00
2024-05-09T10:49:17.080Z,35.70
2024-05-09T10:52:03.764Z,33.20
2024-05-09T10:54:49.994Z,34.10
2024-05-09T10:57:39.851Z,35.10
2024-05-09T11:00:36.394Z,33.80
2024-05-09T11:03:23.165Z,32.20
2024-05-09T11:06:09.931Z,32.50
2024-05-09T11:08:56.389Z,32.60
2024-05-09T11:11:41.894Z,32.80
2024-05-09T11:14:27.667Z,32.00
2024-05-09T11:17:13.090Z,30.80
2024-05-09T11:20:00.495Z,30.60
2024-05-09T11:22:46.250Z,30.80
2024-05-09T11:25:33.269Z,31.40
2024-05-09T11:28:19.283Z,33.40
2024-05-09T11:31:06.960Z,32.30
2024-05-09T11:33:54.673Z,31.00
2024-05-09T11:36:40.513Z,32.10
2024-05-09T11:39:26.470Z,30.80
2024-05-09T11:42:12.295Z,32.20
2024-05-09T11:44:57.714Z,32.80
2024-05-09T11:47:43.807Z,32.50
2024-05-09T11:50:32.963Z,32.60
2024-05-09T11:53:21.606Z,31.90
2024-05-09T11:56:07.511Z,33.30
2024-05-09T11:58:53.302Z,32.90
2024-05-09T12:01:38.978Z,32.90
2024-05-09T12:04:24.769Z,32.70
2024-05-09T12:07:12.895Z,31.20
2024-05-09T12:09:58.705Z,28.90
2024-05-09T12:12:44.876Z,30.30
2024-05-09T12:15:30.715Z,30.10
2024-05-09T12:18:16.582Z,30.60
2024-05-09T12:21:02.510Z,29.40
2024-05-09T12:23:48.019Z,27.70
2024-05-09T12:26:33.353Z,27.80
2024-05-09T12:29:18.837Z,29.00
2024-05-09T12:32:04.370Z,28.80
2024-05-09T12:34:50.248Z,30.10
2024-05-09T12:37:35.695Z,26.10
2024-05-09T12:40:30.717Z,25.30
2024-05-09T12:43:20.545Z,25.00
2024-05-09T12:46:06.164Z,24.50
2024-05-09T12:48:53.587Z,26.50
2024-05-09T12:51:39.430Z,27.40
2024-05-09T12:54:25.304Z,25.40
2024-05-09T12:57:10.658Z,28.90
2024-05-09T12:59:55.992Z,27.00
2024-05-09T13:02:41.369Z,28.40
2024-05-09T13:05:27.080Z,28.60
2024-05-09T13:08:13.294Z,28.40
2024-05-09T13:10:58.891Z,28.60
2024-05-09T13:13:44.624Z,29.10
2024-05-09T13:16:30.400Z,27.90
2024-05-09T13:19:18.449Z,29.00
2024-05-09T13:22:04.322Z,30.00
2024-05-09T13:24:50.031Z,29.70
2024-05-09T13:27:35.324Z,29.00
2024-05-09T13:30:29.245Z,30.20
2024-05-09T13:33:23.689Z,29.70
2024-05-09T13:36:09.495Z,29.10
2024-05-09T13:38:54.896Z,29.50
2024-05-09T13:41:40.065Z,30.00
2024-05-09T13:44:25.412Z,29.50
2024-05-09T13:47:10.861Z,27.70
2024-05-09T13:49:56.554Z,28.80
2024-05-09T13:52:41.850Z,26.60
2024-05-09T13:55:27.187Z,25.70
2024-05-09T13:58:13.064Z,26.50
2024-05-09T14:00:58.998Z,25.40
2024-05-09T14:03:44.883Z,24.40
2024-05-09T14:06:30.624Z,26.80
2024-05-09T14:09:16.659Z,26.90
2024-05-09T14:12:02.257Z,27.00
2024-05-09T14:14:48.053Z,27.00
2024-05-09T14:17:33.483Z,27.70
2024-05-09T14:20:27.952Z,28.80
2024-05-09T14:23:17.767Z,27.50
2024-05-09T14:26:03.510Z,28.50
2024-05-09T14:28:49.116Z,26.70
2024-05-09T14:31:37.888Z,27.60
2024-05-09T14:34:25.431Z,27.10
2024-05-09T14:37:11.865Z,26.10
2024-05-09T14:39:58.435Z,26.30
2024-05-09T14:42:44.226Z,27.80
2024-05-09T14:45:29.985Z,28.40
2024-05-09T14:48:15.866Z,27.80
2024-05-09T14:51:01.917Z,28.80
2024-05-09T14:53:47.197Z,27.20
2024-05-09T14:56:33.549Z,28.70
2024-05-09T14:59:19.278Z,29.90
2024-05-09T15:02:04.651Z,27.90
2024-05-09T15:04:50.619Z,29.80
2024-05-09T15:07:36.828Z,29.20
2024-05-09T15:10:31.084Z,28.00
2024-05-09T15:13:20.997Z,28.30
2024-05-09T15:16:07.005Z,26.20
2024-05-09T15:18:52.951Z,27.60
2024-05-09T15:21:38.731Z,27.70
2024-05-09T15:24:24.536Z,27.70
2024-05-09T15:27:10.201Z,28.30
2024-05-09T15:29:55.717Z,26.40
2024-05-09T15:32:41.215Z,25.50
2024-05-09T15:35:26.954Z,24.80
2024-05-09T15:38:13.029Z,26.20
2024-05-09T15:40:59.250Z,24.50
2024-05-09T15:43:44.992Z,23.70
2024-05-09T15:46:31.006Z,23.90
2024-05-09T15:49:16.744Z,24.60
2024-05-09T15:52:02.608Z,24.90
2024-05-09T15:54:48.267Z,25.90
2024-05-09T15:57:34.111Z,25.10
2024-05-09T16:00:28.469Z,24.30
2024-05-09T16:03:21.399Z,24.60
2024-05-09T16:06:07.057Z,25.00
2024-05-09T16:08:52.615Z,25.90
2024-05-09T16:11:37.818Z,26.90
2024-05-09T16:14:23.682Z,27.50
2024-05-09T16:17:09.157Z,26.30
2024-05-09T16:19:55.079Z,26.00
2024-05-09T16:22:40.383Z,27.20
2024-05-09T16:25:28.029Z,25.40
2024-05-09T16:28:14.160Z,26.80
2024-05-09T16:31:01.495Z,26.60
2024-05-09T16:33:47.406Z,26.80
2024-05-09T16:36:33.121Z,27.40
2024-05-09T16:39:18.812Z,25.80
2024-05-09T16:42:04.204Z,25.00
2024-05-09T16:44:49.536Z,27.40
2024-05-09T16:47:35.316Z,27.80
2024-05-09T16:50:28.750Z,28.10
2024-05-09T16:53:17.327Z,27.90
2024-05-09T16:56:02.953Z,28.60
2024-05-09T16:58:48.474Z,28.50
2024-05-09T17:01:34.134Z,28.50
2024-05-09T17:04:19.800Z,28.00
2024-05-09T17:07:06.093Z,27.90
2024-05-09T17:09:52.046Z,28.60
2024-05-09T17:12:38.024Z,27.80
2024-05-09T17:15:23.386Z,27.60
2024-05-09T17:18:08.730Z,27.60
2024-05-09T17:20:55.047Z,25.60
2024-05-09T17:23:41.005Z,25.90
2024-05-09T17:26:28.285Z,25.70
2024-05-09T17:29:14.148Z,25.70
2024-05-09T17:31:59.707Z,27.00
2024-05-09T17:34:45.022Z,26.60
2024-05-09T17:37:31.288Z,26.10
2024-05-09T17:40:20.712Z,25.20
2024-05-09T17:43:10.983Z,25.30
2024-05-09T17:45:57.216Z,25.10
2024-05-09T17:48:42.808Z,25.20
2024-05-09T17:51:30.847Z,27.00
2024-05-09T17:54:16.489Z,27.70
2024-05-09T17:57:01.925Z,28.50
2024-05-09T17:59:47.801Z,29.70
2024-05-09T18:02:33.612Z,29.50
2024-05-09T18:05:19.545Z,30.40
2024-05-09T18:08:06.054Z,30.10
2024-05-09T18:10:52.169Z,31.50
2024-05-09T18:13:38.700Z,31.20
2024-05-09T18:16:24.330Z,30.90
2024-05-09T18:19:10.029Z,31.70
2024-05-09T18:21:55.829Z,32.20
2024-05-09T18:24:41.641Z,32.90
2024-05-09T18:27:27.469Z,33.30
2024-05-09T18:30:24.094Z,34.10
2024-05-09T18:33:17.947Z,34.20
2024-05-09T18:36:03.885Z,34.80
2024-05-09T18:38:49.535Z,34.80
2024-05-09T18:41:34.774Z,35.30
2024-05-09T18:44:20.097Z,35.20
2024-05-09T18:47:05.510Z,35.50
2024-05-09T18:49:51.168Z,36.40
2024-05-09T18:52:36.964Z,37.20
2024-05-09T18:55:22.440Z,37.30
2024-05-09T18:58:08.326Z,36.80
2024-05-09T19:00:55.590Z,37.10
2024-05-09T19:03:42.518Z,37.70
2024-05-09T19:06:28.614Z,38.50
2024-05-09T19:09:14.350Z,37.70
2024-05-09T19:12:03.693Z,38.50
2024-05-09T19:14:49.091Z,38.30
2024-05-09T19:17:34.435Z,39.00
2024-05-09T19:20:28.178Z,39.50
2024-05-09T19:23:17.398Z,39.50
2024-05-09T19:26:03.271Z,39.70
2024-05-09T19:28:48.836Z,39.90
2024-05-09T19:31:34.529Z,40.20
2024-05-09T19:34:20.170Z,40.10
2024-05-09T19:37:06.120Z,40.50
2024-05-09T19:39:51.947Z,40.40
2024-05-09T19:42:37.851Z,40.20
2024-05-09T19:45:23.185Z,41.30
2024-05-09T19:48:09.362Z,41.30
2024-05-09T19:50:55.236Z,41.30
2024-05-09T19:53:40.863Z,41.90
2024-05-09T19:56:26.488Z,42.00
2024-05-09T19:59:12.319Z,42.10
2024-05-09T20:01:57.811Z,41.60
2024-05-09T20:04:45.910Z,41.70
2024-05-09T20:07:32.691Z,42.30
2024-05-09T20:10:23.898Z,42.50
2024-05-09T20:13:13.541Z,42.60
2024-05-09T20:16:01.358Z,42.50
2024-05-09T20:18:46.938Z,42.60
2024-05-09T20:21:32.601Z,44.60
2024-05-09T20:24:18.505Z,43.50
2024-05-09T20:27:03.912Z,43.30
2024-05-09T20:29:49.363Z,43.40
2024-05-09T20:32:34.660Z,43.30
2024-05-09T20:35:20.205Z,43.80
2024-05-09T20:38:06.308Z,44.00
2024-05-09T20:40:51.839Z,44.20
2024-05-09T20:43:37.437Z,44.20
2024-05-09T20:46:22.647Z,44.50
2024-05-09T20:49:08.809Z,44.20
2024-05-09T20:51:54.551Z,43.10
2024-05-09T20:54:40.199Z,43.50
2024-05-09T20:57:26.162Z,45.30
2024-05-09T21:00:18.369Z,45.20
2024-05-09T21:03:05.167Z,45.70
2024-05-09T21:05:51.187Z,45.50
2024-05-09T21:08:36.871Z,45.80
2024-05-09T21:11:23.085Z,46.00
2024-05-09T21:14:08.852Z,46.00
2024-05-09T21:16:54.379Z,46.80
2024-05-09T21:19:40.019Z,47.70
2024-05-09T21:22:25.252Z,48.10
2024-05-09T21:25:11.142Z,48.20
2024-05-09T21:27:56.999Z,49.50
2024-05-09T21:30:43.401Z,49.50
2024-05-09T21:33:29.015Z,52.00
2024-05-09T21:36:14.836Z,51.40
2024-05-09T21:39:00.138Z,52.20
2024-05-09T21:41:45.490Z,52.50
2024-05-09T21:44:31.528Z,52.30
2024-05-09T21:47:16.764Z,52.40
2024-05-09T21:50:01.942Z,53.90
2024-05-09T21:52:47.224Z,53.30
2024-05-09T21:55:32.476Z,53.70
2024-05-09T21:58:18.102Z,53.80
2024-05-09T22:01:05.388Z,54.30
2024-05-09T22:03:51.043Z,53.30
2024-05-09T22:06:36.835Z,54.20
2024-05-09T22:09:22.805Z,55.80
2024-05-09T22:12:08.492Z,55.70
2024-05-09T22:14:54.258Z,56.00
2024-05-09T22:17:40.728Z,57.00
2024-05-09T22:20:34.433Z,57.40
2024-05-09T22:23:23.822Z,56.80
2024-05-09T22:26:09.844Z,56.40
2024-05-09T22:28:55.111Z,57.30
2024-05-09T22:31:40.344Z,57.40
2024-05-09T22:34:25.817Z,57.60
2024-05-09T22:37:11.720Z,57.50
2024-05-09T22:39:57.466Z,57.70
2024-05-09T22:42:43.290Z,57.20
2024-05-09T22:45:28.587Z,57.60
2024-05-09T22:48:13.967Z,57.40
2024-05-09T22:50:59.640Z,57.60
2024-05-09T22:53:45.016Z,57.90
2024-05-09T22:56:30.390Z,57.90
2024-05-09T22:59:16.432Z,58.00
2024-05-09T23:02:02.168Z,58.00
2024-05-09T23:04:48.300Z,57.40
2024-05-09T23:07:33.790Z,58.00
2024-05-09T23:10:27.326Z,58.80
2024-05-09T23:13:17.590Z,59.00
2024-05-09T23:16:03.560Z,59.50
2024-05-09T23:18:49.515Z,60.40
2024-05-09T23:21:39.876Z,60.40
2024-05-09T23:24:25.273Z,60.10
2024-05-09T23:27:11.058Z,60.90
2024-05-09T23:29:56.300Z,61.20
2024-05-09T23:32:41.626Z,60.50
2024-05-09T23:35:27.534Z,62.30
2024-05-09T23:38:13.084Z,62.00
2024-05-09T23:40:58.862Z,61.80
2024-05-09T23:43:44.584Z,61.70
2024-05-09T23:46:29.953Z,62.40
2024-05-09T23:49:15.830Z,64.70
2024-05-09T23:52:01.556Z,63.60
2024-05-09T23:54:47.351Z,64.10
2024-05-09T23:57:33.085Z,65.10
